createdAt,value
2023-03-19T00:02:16.178Z,16.18
2023-03-19T00:04:43.513Z,16.31
2023-03-19T00:07:10.136Z,15.77
2023-03-19T00:09:36.684Z,16.12
2023-03-19T00:12:03.393Z,16.35
2023-03-19T00:14:29.751Z,16.04
2023-03-19T00:16:56.305Z,16.40
2023-03-19T00:19:22.720Z,16.02
2023-03-19T00:21:49.085Z,16.34
2023-03-19T00:24:16.105Z,16.29
2023-03-19T00:26:42.437Z,16.03
2023-03-19T00:29:09.570Z,15.95
2023-03-19T00:31:36.101Z,15.43
2023-03-19T00:34:03.650Z,15.58
2023-03-19T00:36:30.411Z,15.79
2023-03-19T00:38:57.542Z,15.97
2023-03-19T00:41:24.454Z,15.20
2023-03-19T00:43:55.554Z,15.98
2023-03-19T00:46:22.903Z,15.82
2023-03-19T00:48:51.088Z,16.15
2023-03-19T00:51:17.529Z,15.80
2023-03-19T00:53:44.698Z,15.76
2023-03-19T00:56:13.067Z,16.01
2023-03-19T00:59:00.601Z,15.99
2023-03-19T01:01:27.221Z,15.94
2023-03-19T01:03:53.544Z,15.82
2023-03-19T01:06:19.899Z,15.90
2023-03-19T01:08:46.281Z,16.07
2023-03-19T01:11:15.206Z,15.35
2023-03-19T01:13:42.131Z,15.23
2023-03-19T01:16:09.451Z,15.98
2023-03-19T01:18:36.143Z,15.35
2023-03-19T01:21:03.644Z,15.32
2023-03-19T01:23:30.644Z,14.98
2023-03-19T01:25:57.429Z,15.13
2023-03-19T01:28:23.990Z,15.01
2023-03-19T01:30:50.852Z,15.82
2023-03-19T01:33:18.022Z,15.84
2023-03-19T01:35:47.635Z,15.77
2023-03-19T01:38:14.067Z,15.78
2023-03-19T01:40:47.858Z,15.93
2023-03-19T01:43:19.905Z,15.95
2023-03-19T01:45:48.093Z,15.98
2023-03-19T01:48:40.807Z,15.72
2023-03-19T01:51:10.507Z,15.20
2023-03-19T01:53:39.402Z,16.04
2023-03-19T01:56:14.085Z,14.65
2023-03-19T01:58:43.766Z,15.33
2023-03-19T02:01:10.562Z,15.47
2023-03-19T02:03:39.298Z,15.95
2023-03-19T02:06:06.505Z,15.72
2023-03-19T02:08:33.987Z,15.82
2023-03-19T02:11:02.019Z,15.56
2023-03-19T02:13:28.541Z,16.05
2023-03-19T02:15:55.381Z,16.01
2023-03-19T02:18:22.575Z,16.04
2023-03-19T02:21:05.639Z,16.06
2023-03-19T02:23:59.339Z,16.03
2023-03-19T02:26:29.339Z,16.05
2023-03-19T02:28:55.746Z,15.59
2023-03-19T02:31:23.236Z,16.05
2023-03-19T02:34:26.775Z,15.66
2023-03-19T02:37:05.320Z,15.97
2023-03-19T02:39:38.416Z,15.42
2023-03-19T02:42:06.000Z,15.79
2023-03-19T02:44:32.452Z,15.83
2023-03-19T02:46:59.501Z,15.09
2023-03-19T02:49:26.019Z,15.39
2023-03-19T02:51:52.390Z,15.95
2023-03-19T02:54:18.733Z,15.79
2023-03-19T02:56:46.086Z,15.88
2023-03-19T02:59:13.330Z,15.14
2023-03-19T03:01:39.844Z,15.69
2023-03-19T03:04:06.497Z,15.68
2023-03-19T03:06:32.875Z,15.47
2023-03-19T03:08:59.288Z,15.40
2023-03-19T03:11:25.665Z,15.51
2023-03-19T03:13:52.016Z,15.61
2023-03-19T03:16:18.460Z,15.39
2023-03-19T03:18:44.824Z,15.41
2023-03-19T03:21:11.704Z,15.61
2023-03-19T03:23:38.204Z,15.48
2023-03-19T03:26:04.703Z,15.02
2023-03-19T03:28:31.058Z,15.02
2023-03-19T03:31:02.165Z,15.34
2023-03-19T03:33:28.640Z,15.47
2023-03-19T03:35:55.914Z,15.63
2023-03-19T03:38:23.493Z,14.88
2023-03-19T03:40:52.381Z,15.06
2023-03-19T03:43:20.739Z,15.74
2023-03-19T03:45:48.731Z,15.77
2023-03-19T03:48:16.040Z,15.72
2023-03-19T03:50:42.897Z,15.58
2023-03-19T03:53:10.225Z,15.69
2023-03-19T03:55:36.874Z,15.12
2023-03-19T03:58:03.734Z,15.79
2023-03-19T04:00:30.209Z,14.98
2023-03-19T04:02:56.617Z,15.63
2023-03-19T04:05:23.070Z,15.63
2023-03-19T04:07:49.422Z,15.62
2023-03-19T04:10:15.771Z,14.82
2023-03-19T04:12:42.244Z,15.19
2023-03-19T04:15:11.073Z,15.10
2023-03-19T04:17:38.422Z,15.52
2023-03-19T04:20:05.597Z,15.61
2023-03-19T04:22:31.982Z,15.55
2023-03-19T04:24:58.508Z,14.59
2023-03-19T04:27:26.168Z,14.49
2023-03-19T04:29:52.544Z,13.83
2023-03-19T04:32:19.046Z,14.00
2023-03-19T04:34:45.440Z,14.16
2023-03-19T04:37:12.438Z,13.96
2023-03-19T04:39:41.065Z,14.24
2023-03-19T04:42:07.501Z,14.06
2023-03-19T04:44:33.912Z,13.65
2023-03-19T04:47:00.405Z,14.04
2023-03-19T04:49:27.301Z,13.38
2023-03-19T04:51:53.693Z,13.50
2023-03-19T04:54:20.726Z,14.08
2023-03-19T04:56:47.228Z,13.79
2023-03-19T04:59:13.599Z,13.46
2023-03-19T05:01:40.058Z,13.37
2023-03-19T05:04:07.161Z,14.12
2023-03-19T05:06:33.980Z,13.74
2023-03-19T05:09:00.831Z,13.71
2023-03-19T05:11:27.385Z,13.17
2023-03-19T05:13:53.763Z,13.73
2023-03-19T05:16:20.265Z,13.66
2023-03-19T05:18:46.824Z,13.87
2023-03-19T05:21:13.659Z,13.86
2023-03-19T05:23:40.212Z,14.18
2023-03-19T05:26:06.915Z,14.38
2023-03-19T05:28:33.401Z,14.10
2023-03-19T05:30:59.882Z,14.17
2023-03-19T05:33:26.834Z,13.41
2023-03-19T05:35:53.366Z,14.45
2023-03-19T05:38:19.924Z,14.03
2023-03-19T05:40:46.949Z,14.44
2023-03-19T05:43:14.055Z,14.50
2023-03-19T05:45:40.484Z,14.62
2023-03-19T05:48:06.933Z,13.88
2023-03-19T05:50:35.962Z,14.36
2023-03-19T05:53:03.319Z,13.75
2023-03-19T05:55:29.681Z,13.82
2023-03-19T05:57:56.618Z,14.21
2023-03-19T06:00:23.208Z,14.50
2023-03-19T06:02:49.632Z,14.49
2023-03-19T06:05:16.659Z,14.05
2023-03-19T06:07:43.326Z,13.89
2023-03-19T06:10:10.150Z,14.12
2023-03-19T06:12:37.024Z,14.21
2023-03-19T06:15:03.792Z,13.94
2023-03-19T06:17:30.644Z,13.69
2023-03-19T06:19:57.104Z,14.22
2023-03-19T06:22:23.542Z,14.59
2023-03-19T06:24:49.982Z,14.64
2023-03-19T06:27:16.346Z,14.21
2023-03-19T06:29:42.848Z,14.25
2023-03-19T06:32:09.733Z,14.26
2023-03-19T06:34:36.280Z,14.55
2023-03-19T06:37:02.676Z,14.63
2023-03-19T06:39:29.105Z,14.72
2023-03-19T06:41:55.782Z,14.60
2023-03-19T06:44:22.219Z,14.29
2023-03-19T06:46:48.629Z,13.93
2023-03-19T06:49:15.432Z,13.80
2023-03-19T06:51:41.886Z,13.73
2023-03-19T06:54:08.333Z,14.15
2023-03-19T06:56:34.698Z,14.16
2023-03-19T06:59:02.289Z,14.11
2023-03-19T07:01:28.896Z,14.20
2023-03-19T07:03:57.109Z,14.25
2023-03-19T07:06:23.682Z,14.83
2023-03-19T07:08:50.082Z,14.91
2023-03-19T07:11:16.604Z,14.18
2023-03-19T07:13:43.121Z,14.96
2023-03-19T07:16:09.733Z,14.98
2023-03-19T07:18:36.268Z,15.00
2023-03-19T07:21:02.756Z,14.89
2023-03-19T07:23:29.246Z,14.89
2023-03-19T07:25:55.739Z,14.48
2023-03-19T07:28:23.135Z,14.42
2023-03-19T07:30:52.302Z,14.14
2023-03-19T07:33:19.676Z,14.68
2023-03-19T07:35:46.467Z,14.70
2023-03-19T07:38:12.933Z,14.45
2023-03-19T07:40:43.405Z,14.49
2023-03-19T07:43:12.112Z,14.78
2023-03-19T07:45:38.529Z,14.40
2023-03-19T07:48:05.877Z,15.07
2023-03-19T07:50:32.992Z,15.02
2023-03-19T07:52:59.508Z,14.96
2023-03-19T07:55:25.967Z,14.83
2023-03-19T07:57:52.542Z,14.14
2023-03-19T08:00:19.458Z,14.88
2023-03-19T08:02:46.341Z,14.66
2023-03-19T08:05:12.758Z,13.59
2023-03-19T08:07:39.272Z,14.24
2023-03-19T08:10:06.276Z,13.24
2023-03-19T08:12:34.463Z,14.29
2023-03-19T08:15:00.858Z,14.09
2023-03-19T08:17:27.284Z,13.88
2023-03-19T08:19:53.686Z,13.99
2023-03-19T08:22:20.128Z,14.12
2023-03-19T08:24:46.489Z,14.47
2023-03-19T08:27:13.028Z,14.37
2023-03-19T08:29:39.390Z,14.91
2023-03-19T08:32:06.438Z,15.00
2023-03-19T08:34:33.237Z,15.20
2023-03-19T08:36:59.604Z,14.62
2023-03-19T08:39:26.179Z,15.00
2023-03-19T08:41:52.506Z,14.66
2023-03-19T08:44:18.890Z,15.21
2023-03-19T08:46:45.613Z,15.34
2023-03-19T08:49:12.029Z,15.72
2023-03-19T08:51:38.514Z,16.27
2023-03-19T08:54:05.306Z,16.18
2023-03-19T08:56:31.773Z,16.12
2023-03-19T08:58:58.312Z,16.00
2023-03-19T09:01:24.837Z,15.76
2023-03-19T09:03:51.213Z,15.84
2023-03-19T09:06:17.778Z,15.41
2023-03-19T09:08:44.867Z,15.78
2023-03-19T09:11:11.613Z,15.86
2023-03-19T09:13:38.346Z,16.19
2023-03-19T09:16:05.739Z,15.47
2023-03-19T09:18:38.388Z,14.76
2023-03-19T09:21:05.154Z,15.08
2023-03-19T09:23:31.536Z,14.76
2023-03-19T09:25:58.051Z,15.32
2023-03-19T09:28:24.751Z,15.44
2023-03-19T09:30:52.134Z,15.00
2023-03-19T09:33:20.254Z,15.87
2023-03-19T09:35:55.045Z,15.77
2023-03-19T09:38:27.365Z,15.94
2023-03-19T09:41:14.652Z,16.13
2023-03-19T09:43:56.751Z,16.65
2023-03-19T09:46:32.077Z,16.42
2023-03-19T09:49:07.101Z,16.50
2023-03-19T09:51:43.315Z,16.20
2023-03-19T09:54:42.996Z,16.32
2023-03-19T09:57:11.370Z,16.81
2023-03-19T09:59:39.504Z,16.90
2023-03-19T10:02:30.799Z,17.06
2023-03-19T10:05:14.227Z,17.04
2023-03-19T10:08:05.704Z,16.96
2023-03-19T10:11:07.514Z,16.79
2023-03-19T10:14:02.534Z,16.65
2023-03-19T10:16:29.931Z,16.82
2023-03-19T10:19:03.270Z,16.01
2023-03-19T10:21:39.753Z,16.37
2023-03-19T10:24:21.709Z,16.82
2023-03-19T10:26:49.781Z,16.47
2023-03-19T10:29:22.336Z,16.22
2023-03-19T10:31:55.385Z,16.33
2023-03-19T10:34:21.884Z,16.47
2023-03-19T10:36:48.410Z,16.56
2023-03-19T10:39:18.987Z,16.12
2023-03-19T10:42:08.391Z,16.82
2023-03-19T10:44:38.813Z,16.77
2023-03-19T10:47:16.810Z,16.20
2023-03-19T10:49:43.185Z,17.02
2023-03-19T10:52:30.875Z,17.06
2023-03-19T10:55:04.588Z,17.26
2023-03-19T10:57:32.013Z,17.62
2023-03-19T11:00:05.946Z,18.09
2023-03-19T11:02:33.539Z,17.64
2023-03-19T11:05:12.836Z,17.31
2023-03-19T11:07:39.911Z,17.23
2023-03-19T11:10:15.681Z,18.33
2023-03-19T11:12:47.442Z,19.16
2023-03-19T11:15:27.589Z,18.86
2023-03-19T11:17:59.729Z,20.09
2023-03-19T11:20:35.458Z,21.09
2023-03-19T11:23:07.715Z,23.32
2023-03-19T11:25:41.520Z,21.56
2023-03-19T11:28:12.382Z,22.11
2023-03-19T11:31:02.024Z,22.52
2023-03-19T11:33:53.555Z,21.27
2023-03-19T11:36:27.345Z,20.48
2023-03-19T11:39:11.487Z,21.01
2023-03-19T11:41:59.969Z,21.55
2023-03-19T11:44:59.792Z,21.24
2023-03-19T11:47:30.533Z,22.53
2023-03-19T11:50:19.188Z,21.74
2023-03-19T11:53:13.266Z,20.97
2023-03-19T11:55:39.794Z,20.32
2023-03-19T11:58:28.840Z,20.72
2023-03-19T12:01:15.998Z,19.10
2023-03-19T12:04:10.076Z,18.77
2023-03-19T12:07:03.280Z,18.63
2023-03-19T12:09:51.998Z,19.31
2023-03-19T12:12:28.372Z,19.60
2023-03-19T12:15:19.792Z,19.86
2023-03-19T12:18:13.550Z,19.66
2023-03-19T12:21:17.375Z,20.49
2023-03-19T12:23:43.708Z,20.69
2023-03-19T12:26:20.983Z,20.01
2023-03-19T12:29:04.485Z,19.09
2023-03-19T12:31:57.738Z,18.51
2023-03-19T12:34:36.541Z,17.91
2023-03-19T12:37:11.981Z,17.98
2023-03-19T12:39:47.177Z,16.66
2023-03-19T12:42:18.737Z,17.71
2023-03-19T12:44:52.670Z,17.06
2023-03-19T12:47:42.048Z,18.01
2023-03-19T12:50:15.303Z,17.43
2023-03-19T12:52:44.333Z,17.33
2023-03-19T12:55:17.011Z,18.02
2023-03-19T12:58:03.888Z,17.94
2023-03-19T13:00:42.372Z,18.38
2023-03-19T13:03:25.648Z,17.72
2023-03-19T13:06:10.981Z,18.26
2023-03-19T13:08:45.035Z,18.13
2023-03-19T13:11:17.549Z,17.08
2023-03-19T13:14:11.457Z,17.85
2023-03-19T13:16:48.747Z,18.03
2023-03-19T13:19:40.329Z,17.98
2023-03-19T13:22:12.382Z,18.08
2023-03-19T13:24:41.590Z,17.56
2023-03-19T13:27:15.639Z,17.38
2023-03-19T13:29:58.433Z,18.26
2023-03-19T13:32:54.403Z,18.70
2023-03-19T13:35:36.494Z,18.54
2023-03-19T13:38:22.634Z,19.55
2023-03-19T13:40:52.043Z,20.37
2023-03-19T13:43:29.278Z,21.48
2023-03-19T13:46:16.021Z,22.36
2023-03-19T13:48:45.517Z,22.28
2023-03-19T13:51:19.083Z,22.13
2023-03-19T13:53:58.286Z,21.36
2023-03-19T13:56:30.288Z,20.79
2023-03-19T13:59:15.691Z,20.81
2023-03-19T14:01:47.235Z,20.19
2023-03-19T14:04:22.795Z,20.35
2023-03-19T14:06:53.526Z,20.23
2023-03-19T14:09:34.774Z,20.32
2023-03-19T14:12:20.517Z,19.45
2023-03-19T14:14:50.539Z,19.52
2023-03-19T14:17:22.542Z,19.08
2023-03-19T14:19:50.937Z,19.46
2023-03-19T14:22:39.958Z,19.74
2023-03-19T14:25:23.830Z,19.51
2023-03-19T14:27:54.061Z,19.64
2023-03-19T14:30:35.100Z,18.34
2023-03-19T14:33:06.922Z,19.14
2023-03-19T14:35:39.536Z,18.96
2023-03-19T14:38:25.204Z,19.32
2023-03-19T14:40:52.773Z,18.86
2023-03-19T14:43:31.019Z,18.84
2023-03-19T14:46:03.938Z,18.61
2023-03-19T14:48:52.032Z,18.98
2023-03-19T14:51:51.818Z,18.83
2023-03-19T14:54:30.559Z,19.07
2023-03-19T14:56:57.779Z,18.50
2023-03-19T14:59:24.266Z,18.84
2023-03-19T15:01:53.451Z,18.96
2023-03-19T15:04:25.426Z,18.27
2023-03-19T15:06:55.924Z,18.26
2023-03-19T15:09:27.281Z,18.77
2023-03-19T15:12:14.386Z,18.44
2023-03-19T15:14:56.312Z,18.81
2023-03-19T15:17:29.881Z,18.86
2023-03-19T15:19:59.910Z,18.85
2023-03-19T15:22:33.529Z,18.21
2023-03-19T15:25:08.814Z,18.62
2023-03-19T15:27:35.929Z,18.15
2023-03-19T15:30:14.375Z,18.27
2023-03-19T15:32:54.428Z,17.65
2023-03-19T15:35:34.367Z,18.21
2023-03-19T15:38:06.452Z,17.27
2023-03-19T15:40:36.808Z,17.89
2023-03-19T15:43:05.257Z,17.67
2023-03-19T15:45:33.968Z,17.85
2023-03-19T15:48:25.120Z,17.89
2023-03-19T15:50:57.533Z,17.59
2023-03-19T15:53:29.517Z,17.88
2023-03-19T15:55:56.311Z,17.92
2023-03-19T15:58:27.826Z,17.12
2023-03-19T16:00:55.570Z,18.03
2023-03-19T16:04:20.892Z,17.74
2023-03-19T16:06:49.409Z,17.99
2023-03-19T16:09:29.487Z,18.79
2023-03-19T16:11:56.936Z,19.52
2023-03-19T16:14:24.057Z,20.17
2023-03-19T16:16:51.351Z,20.26
2023-03-19T16:19:32.375Z,19.59
2023-03-19T16:21:59.964Z,18.95
2023-03-19T16:24:37.514Z,18.73
2023-03-19T16:27:07.892Z,18.54
2023-03-19T16:29:39.175Z,17.73
2023-03-19T16:32:11.770Z,18.42
2023-03-19T16:34:46.612Z,18.38
2023-03-19T16:37:25.354Z,18.24
2023-03-19T16:39:57.976Z,17.89
2023-03-19T16:42:33.757Z,18.10
2023-03-19T16:45:17.525Z,17.71
2023-03-19T16:47:45.811Z,17.42
2023-03-19T16:50:13.732Z,17.94
2023-03-19T16:52:41.409Z,17.60
2023-03-19T16:55:21.842Z,17.56
2023-03-19T16:58:18.940Z,17.89
2023-03-19T17:00:47.183Z,17.19
2023-03-19T17:03:18.538Z,17.19
2023-03-19T17:05:46.536Z,16.34
2023-03-19T17:08:13.798Z,17.26
2023-03-19T17:10:45.623Z,17.48
2023-03-19T17:13:29.697Z,16.51
2023-03-19T17:16:00.846Z,17.55
2023-03-19T17:18:30.805Z,16.76
2023-03-19T17:21:02.111Z,17.58
2023-03-19T17:23:37.684Z,17.77
2023-03-19T17:26:16.159Z,17.71
2023-03-19T17:28:45.849Z,17.01
2023-03-19T17:31:29.101Z,17.61
2023-03-19T17:34:02.670Z,17.65
2023-03-19T17:37:03.337Z,17.20
2023-03-19T17:39:33.188Z,17.25
2023-03-19T17:41:59.991Z,17.23
2023-03-19T17:44:27.869Z,17.04
2023-03-19T17:46:55.850Z,17.16
2023-03-19T17:49:32.561Z,17.09
2023-03-19T17:51:59.712Z,16.53
2023-03-19T17:54:27.134Z,16.64
2023-03-19T17:56:55.194Z,16.43
2023-03-19T17:59:22.315Z,15.90
2023-03-19T18:01:48.939Z,15.70
2023-03-19T18:04:20.047Z,16.12
2023-03-19T18:06:51.045Z,16.46
2023-03-19T18:09:25.846Z,16.27
2023-03-19T18:11:52.597Z,15.66
2023-03-19T18:14:19.035Z,15.39
2023-03-19T18:16:46.424Z,15.63
2023-03-19T18:19:40.451Z,16.51
2023-03-19T18:22:18.389Z,15.54
2023-03-19T18:24:45.306Z,16.39
2023-03-19T18:27:12.458Z,15.39
2023-03-19T18:29:41.241Z,15.87
2023-03-19T18:32:13.900Z,15.09
2023-03-19T18:34:40.508Z,15.04
2023-03-19T18:37:07.074Z,15.72
2023-03-19T18:39:38.010Z,14.79
2023-03-19T18:42:04.464Z,14.89
2023-03-19T18:44:30.934Z,15.31
2023-03-19T18:46:57.931Z,14.88
2023-03-19T18:49:27.475Z,15.45
2023-03-19T18:52:02.601Z,14.66
2023-03-19T18:54:31.023Z,14.00
2023-03-19T18:56:59.906Z,14.58
2023-03-19T18:59:30.332Z,15.00
2023-03-19T19:02:22.403Z,15.56
2023-03-19T19:04:49.193Z,14.48
2023-03-19T19:07:19.184Z,15.00
2023-03-19T19:09:51.059Z,14.76
2023-03-19T19:12:18.517Z,15.00
2023-03-19T19:14:45.670Z,14.59
2023-03-19T19:17:26.448Z,15.12
2023-03-19T19:19:53.100Z,14.79
2023-03-19T19:22:20.332Z,15.43
2023-03-19T19:24:47.008Z,15.02
2023-03-19T19:27:26.496Z,14.72
2023-03-19T19:29:53.184Z,15.45
2023-03-19T19:32:28.629Z,14.93
2023-03-19T19:34:55.326Z,13.42
2023-03-19T19:37:24.794Z,14.16
2023-03-19T19:39:53.877Z,14.04
2023-03-19T19:42:22.562Z,14.50
2023-03-19T19:44:55.640Z,13.89
2023-03-19T19:47:24.436Z,13.85
2023-03-19T19:49:51.008Z,13.98
2023-03-19T19:52:20.626Z,14.80
2023-03-19T19:54:48.175Z,14.28
2023-03-19T19:58:19.354Z,13.34
2023-03-19T20:01:00.143Z,14.14
2023-03-19T20:03:31.357Z,14.87
2023-03-19T20:06:19.319Z,14.72
2023-03-19T20:09:23.717Z,14.48
2023-03-19T20:11:50.736Z,14.21
2023-03-19T20:14:35.783Z,13.84
2023-03-19T20:17:07.531Z,13.13
2023-03-19T20:19:34.147Z,12.53
2023-03-19T20:22:00.844Z,13.26
2023-03-19T20:24:27.380Z,13.87
2023-03-19T20:29:39.950Z,12.67
2023-03-19T20:32:26.010Z,13.27
2023-03-19T20:34:52.650Z,12.83
2023-03-19T20:37:19.190Z,12.80
2023-03-19T20:39:45.997Z,13.49
2023-03-19T20:42:16.101Z,13.26
2023-03-19T20:44:46.056Z,12.32
2023-03-19T20:47:20.462Z,13.82
2023-03-19T20:49:58.050Z,12.47
2023-03-19T20:52:24.473Z,13.24
2023-03-19T20:54:59.535Z,12.42
2023-03-19T20:57:29.238Z,13.70
2023-03-19T20:59:55.776Z,13.55
2023-03-19T21:02:25.776Z,13.60
2023-03-19T21:04:53.154Z,13.44
2023-03-19T21:07:29.070Z,13.65
2023-03-19T21:09:57.587Z,13.26
2023-03-19T21:12:29.814Z,13.31
2023-03-19T21:14:57.886Z,12.99
2023-03-19T21:17:25.102Z,12.93
2023-03-19T21:19:51.455Z,13.47
2023-03-19T21:22:24.939Z,13.10
2023-03-19T21:24:57.004Z,13.79
2023-03-19T21:27:26.246Z,13.30
2023-03-19T21:29:53.726Z,13.34
2023-03-19T21:32:20.286Z,13.30
2023-03-19T21:34:48.848Z,12.25
2023-03-19T21:37:18.046Z,13.38
2023-03-19T21:39:45.510Z,12.87
2023-03-19T21:42:17.482Z,12.88
2023-03-19T21:44:47.860Z,12.84
2023-03-19T21:47:18.810Z,13.14
2023-03-19T21:49:45.165Z,13.16
2023-03-19T21:52:18.277Z,13.19
2023-03-19T21:54:45.068Z,13.20
2023-03-19T21:57:13.547Z,13.46
2023-03-19T21:59:41.307Z,13.65
2023-03-19T22:02:41.643Z,13.59
2023-03-19T22:05:26.452Z,13.40
2023-03-19T22:07:53.402Z,13.34
2023-03-19T22:10:21.969Z,12.51
2023-03-19T22:12:49.137Z,12.88
2023-03-19T22:15:25.271Z,13.43
2023-03-19T22:17:51.785Z,12.62
2023-03-19T22:20:21.095Z,13.30
2023-03-19T22:22:49.730Z,12.84
2023-03-19T22:25:17.209Z,13.31
2023-03-19T22:27:46.990Z,12.81
2023-03-19T22:30:29.782Z,13.10
2023-03-19T22:32:57.308Z,13.50
2023-03-19T22:35:24.058Z,13.16
2023-03-19T22:37:50.536Z,12.57
2023-03-19T22:40:18.237Z,12.23
2023-03-19T22:42:46.983Z,13.34
2023-03-19T22:45:26.174Z,12.96
2023-03-19T22:47:57.122Z,12.20
2023-03-19T22:50:26.437Z,12.30
2023-03-19T22:52:56.425Z,12.78
2023-03-19T22:55:23.791Z,13.33
2023-03-19T22:57:51.006Z,13.29
2023-03-19T23:00:23.780Z,12.82
2023-03-19T23:02:57.753Z,12.83
2023-03-19T23:05:27.692Z,13.01
2023-03-19T23:07:56.089Z,11.79
2023-03-19T23:10:25.624Z,11.81
2023-03-19T23:12:53.341Z,11.99
2023-03-19T23:15:20.868Z,13.23
2023-03-19T23:17:47.731Z,13.20
2023-03-19T23:20:17.790Z,12.33
2023-03-19T23:22:45.768Z,12.23
2023-03-19T23:25:17.083Z,13.22
2023-03-19T23:27:47.156Z,13.15
2023-03-19T23:30:28.248Z,13.45
2023-03-19T23:32:56.162Z,13.17
2023-03-19T23:35:25.682Z,13.36
2023-03-19T23:37:54.904Z,13.18
2023-03-19T23:40:22.864Z,13.31
2023-03-19T23:42:53.591Z,12.46
2023-03-19T23:45:31.849Z,13.29
2023-03-19T23:48:05.299Z,13.01
2023-03-19T23:50:33.040Z,11.72
2023-03-19T23:53:00.474Z,13.12
2023-03-19T23:55:27.055Z,12.08
2023-03-19T23:57:54.136Z,13.18
